Time;durP1;ratioP1;P1;durP2;ratioP2;P2;SDS_P1;SDS_P2;PMS_P1;PMS_P2;Temp;Humidity;BMP_temperature;BMP_pressure;BME280_temperature;BME280_humidity;BME280_pressure;Samples;Min_cycle;Max_cycle;Signal;HPM_P1;HPM_P2
2022/06/20 00:00:27;;;;;;;3.67;1.63;;;20.00;93.70;;;;;;5114075;28;20039;-78
2022/06/20 00:02:58;;;;;;;3.03;1.42;;;20.00;93.90;;;;;;5114153;27;20066;-78
2022/06/20 00:05:30;;;;;;;2.73;1.43;;;20.00;94.00;;;;;;5111574;28;20483;-78
2022/06/20 00:07:55;;;;;;;2.38;1.30;;;20.00;94.20;;;;;;5092649;28;20277;-78
2022/06/20 00:10:23;;;;;;;3.20;1.55;;;19.90;94.10;;;;;;5097109;28;20441;-78
2022/06/20 00:12:50;;;;;;;3.63;1.40;;;20.00;93.60;;;;;;5112294;27;20027;-78
2022/06/20 00:15:23;;;;;;;2.50;1.50;;;19.90;93.40;;;;;;5094057;28;20037;-78
2022/06/20 00:17:48;;;;;;;3.33;1.60;;;20.00;93.80;;;;;;5075989;28;20027;-78
2022/06/20 00:20:15;;;;;;;3.92;1.60;;;19.90;93.90;;;;;;5091854;28;20024;-78
2022/06/20 00:22:40;;;;;;;3.85;1.70;;;19.90;93.90;;;;;;5103068;28;20024;-78
2022/06/20 00:25:06;;;;;;;2.83;1.40;;;19.90;94.10;;;;;;5095597;28;20073;-78
2022/06/20 00:27:32;;;;;;;2.95;1.52;;;19.90;94.10;;;;;;5113848;28;20038;-78
2022/06/20 00:29:57;;;;;;;3.95;1.60;;;19.90;94.40;;;;;;5104478;28;20115;-78
2022/06/20 00:32:23;;;;;;;2.50;1.60;;;19.90;94.20;;;;;;5114790;27;20036;-78
2022/06/20 00:34:48;;;;;;;3.58;1.40;;;19.90;94.20;;;;;;5113405;28;20491;-78
2022/06/20 00:37:19;;;;;;;2.92;1.52;;;19.90;94.40;;;;;;5095347;28;20038;-78
2022/06/20 00:39:46;;;;;;;3.58;1.50;;;20.00;94.70;;;;;;5096317;28;20044;-78
2022/06/20 00:42:12;;;;;;;3.22;1.50;;;20.00;94.70;;;;;;5098593;28;20034;-78
2022/06/20 00:44:48;;;;;;;3.20;1.40;;;20.00;94.60;;;;;;5095727;28;20391;-77
2022/06/20 00:47:19;;;;;;;2.40;1.40;;;20.00;93.90;;;;;;5098038;28;20043;-78
2022/06/20 00:49:53;;;;;;;2.83;1.50;;;20.00;93.90;;;;;;5098329;28;20046;-78
2022/06/20 00:52:33;;;;;;;2.60;1.30;;;20.00;93.90;;;;;;5113665;28;20396;-78
2022/06/20 00:55:10;;;;;;;2.67;1.30;;;19.90;93.90;;;;;;5114330;28;20032;-78
2022/06/20 00:57:53;;;;;;;2.15;1.33;;;19.90;94.30;;;;;;5096432;28;20270;-78
2022/06/20 01:00:22;;;;;;;3.30;1.60;;;19.90;94.30;;;;;;5114306;28;20020;-78
2022/06/20 01:02:51;;;;;;;3.03;1.40;;;19.90;94.60;;;;;;5095236;28;20046;-78
2022/06/20 01:05:38;;;;;;;3.20;1.42;;;19.90;93.80;;;;;;5092174;28;20039;-78
2022/06/20 01:08:17;;;;;;;1.98;1.27;;;19.90;93.60;;;;;;5093204;28;20031;-78
2022/06/20 01:10:47;;;;;;;2.50;1.35;;;19.90;93.90;;;;;;5092032;28;20031;-78
2022/06/20 01:13:16;;;;;;;2.90;1.30;;;19.90;94.20;;;;;;5105007;28;20035;-78
2022/06/20 01:15:45;;;;;;;2.72;1.40;;;19.90;94.10;;;;;;5113636;28;20160;-78
2022/06/20 01:18:19;;;;;;;3.80;1.80;;;19.90;94.20;;;;;;5095793;28;20034;-78
2022/06/20 01:20:46;;;;;;;2.78;1.40;;;19.90;94.20;;;;;;5095674;28;20104;-78
2022/06/20 01:23:17;;;;;;;2.45;1.40;;;19.90;94.70;;;;;;5095068;28;20020;-78
2022/06/20 01:26:01;;;;;;;2.67;1.20;;;19.90;94.50;;;;;;5096010;28;20106;-78
2022/06/20 01:28:32;;;;;;;3.35;1.80;;;19.90;94.80;;;;;;5113233;28;20035;-77
2022/06/20 01:30:59;;;;;;;2.30;1.38;;;19.90;94.80;;;;;;5113129;28;20529;-77
2022/06/20 01:33:26;;;;;;;2.50;1.30;;;20.00;94.80;;;;;;5094775;28;20035;-78
2022/06/20 01:38:39;;;;;;;2.78;1.30;;;20.00;94.00;;;;;;5113015;28;20038;-78
2022/06/20 01:43:50;;;;;;;2.58;1.30;;;20.00;94.00;;;;;;5116932;28;20104;-78
2022/06/20 01:46:16;;;;;;;2.13;1.30;;;19.90;93.90;;;;;;5116859;28;20029;-77
2022/06/20 01:48:49;;;;;;;2.72;1.50;;;19.90;94.30;;;;;;5099371;28;20028;-77
2022/06/20 01:51:19;;;;;;;2.85;1.40;;;19.90;94.40;;;;;;5099389;28;20069;-78
2022/06/20 01:53:46;;;;;;;2.92;1.35;;;19.90;94.40;;;;;;5116500;28;20106;-77
2022/06/20 01:56:12;;;;;;;2.20;1.30;;;19.90;93.80;;;;;;5116678;28;20465;-78
2022/06/20 01:58:41;;;;;;;4.18;1.63;;;19.90;93.80;;;;;;5116845;28;20016;-78
2022/06/20 02:01:08;;;;;;;4.13;1.30;;;19.90;93.70;;;;;;5098092;28;20019;-78
2022/06/20 02:03:37;;;;;;;3.63;1.65;;;19.80;94.00;;;;;;5116518;28;20487;-78
2022/06/20 02:06:04;;;;;;;2.85;1.30;;;19.90;94.10;;;;;;5098523;28;20028;-78
2022/06/20 02:08:31;;;;;;;5.07;1.42;;;19.90;94.40;;;;;;5098612;28;20024;-78
2022/06/20 02:11:05;;;;;;;3.53;1.40;;;19.80;94.40;;;;;;5098809;28;20024;-79
2022/06/20 02:13:35;;;;;;;3.90;1.67;;;19.90;94.80;;;;;;5098053;28;20028;-78
2022/06/20 02:16:04;;;;;;;3.35;1.48;;;19.90;94.70;;;;;;5115881;28;20032;-78
2022/06/20 02:18:35;;;;;;;2.35;1.40;;;19.90;94.90;;;;;;5117035;28;20024;-78
2022/06/20 02:21:03;;;;;;;3.05;1.60;;;19.90;94.90;;;;;;5120209;27;20102;-78
2022/06/20 02:26:55;;;;;;;3.40;1.38;;;20.00;94.90;;;;;;5101970;28;20056;-78
2022/06/20 02:29:26;;;;;;;1.88;1.30;;;20.00;94.40;;;;;;5110563;27;20098;-78
2022/06/20 02:31:57;;;;;;;3.47;1.35;;;20.00;94.20;;;;;;5124053;27;20038;-78
2022/06/20 02:34:28;;;;;;;3.45;1.30;;;20.00;94.40;;;;;;5133636;27;20023;-78
2022/06/20 02:36:55;;;;;;;3.42;1.50;;;19.90;94.10;;;;;;5105202;28;20114;-78
2022/06/20 02:39:22;;;;;;;2.80;1.20;;;19.90;94.20;;;;;;5097481;28;20034;-78
2022/06/20 02:41:53;;;;;;;2.13;1.20;;;19.90;94.40;;;;;;5097481;28;20031;-78
2022/06/20 02:44:20;;;;;;;3.53;1.40;;;19.90;94.60;;;;;;5097469;28;20027;-78
2022/06/20 02:46:48;;;;;;;3.58;1.35;;;19.90;94.30;;;;;;5109387;28;20115;-78
2022/06/20 02:49:16;;;;;;;2.17;1.27;;;19.90;93.80;;;;;;5114440;27;20032;-78
2022/06/20 02:51:47;;;;;;;3.88;1.40;;;19.90;93.80;;;;;;5115933;28;20024;-77
2022/06/20 02:54:14;;;;;;;2.92;1.55;;;19.90;94.10;;;;;;5097848;28;20023;-78
2022/06/20 02:56:44;;;;;;;3.58;1.45;;;19.90;94.30;;;;;;5130458;27;20050;-78
2022/06/20 02:59:18;;;;;;;2.47;1.30;;;19.90;94.60;;;;;;5134875;27;20026;-78
2022/06/20 03:01:53;;;;;;;3.22;1.35;;;19.90;94.30;;;;;;5116811;27;20031;-76
2022/06/20 03:04:21;;;;;;;2.88;1.38;;;19.90;94.70;;;;;;5117567;27;20456;-78
2022/06/20 03:06:52;;;;;;;2.00;1.25;;;19.90;94.80;;;;;;5101316;27;20038;-78
2022/06/20 03:09:24;;;;;;;3.63;1.47;;;19.80;94.70;;;;;;5111035;28;20563;-78
2022/06/20 03:11:50;;;;;;;2.45;1.20;;;19.90;94.90;;;;;;5112318;27;20027;-77
2022/06/20 03:14:19;;;;;;;4.15;1.60;;;19.90;95.10;;;;;;5117349;27;20031;-79
2022/06/20 03:16:45;;;;;;;2.70;1.30;;;19.90;94.90;;;;;;5102715;28;20030;-78
2022/06/20 03:19:19;;;;;;;1.85;1.10;;;19.90;94.90;;;;;;5115605;28;20319;-78
2022/06/20 03:21:47;;;;;;;3.58;1.40;;;20.00;94.30;;;;;;5096899;28;20100;-77
2022/06/20 03:24:18;;;;;;;2.05;1.25;;;19.90;94.40;;;;;;5115213;27;20065;-78
2022/06/20 03:26:44;;;;;;;2.25;1.30;;;19.90;94.20;;;;;;5114885;28;20031;-77
2022/06/20 03:29:14;;;;;;;2.83;1.48;;;19.90;94.20;;;;;;5096903;28;20024;-78
2022/06/20 03:31:39;;;;;;;3.35;1.33;;;19.90;94.50;;;;;;5116470;27;20422;-78
2022/06/20 03:34:05;;;;;;;2.85;1.38;;;19.90;94.80;;;;;;5096402;28;20072;-78
2022/06/20 03:36:31;;;;;;;2.90;1.40;;;19.80;94.60;;;;;;5104199;27;20020;-78
2022/06/20 03:38:57;;;;;;;3.42;1.58;;;19.90;94.50;;;;;;5116854;27;20128;-78
2022/06/20 03:41:25;;;;;;;2.75;1.30;;;19.90;94.30;;;;;;5116373;27;20419;-78
2022/06/20 03:44:24;;;;;;;2.72;1.38;;;19.80;94.60;;;;;;5116954;27;20252;-77
2022/06/20 03:47:14;;;;;;;3.50;1.40;;;19.80;94.10;;;;;;5081022;28;20038;-78
2022/06/20 03:49:58;;;;;;;4.05;1.30;;;19.80;94.70;;;;;;5088248;28;20020;-78
2022/06/20 03:52:29;;;;;;;1.80;1.13;;;19.80;94.70;;;;;;5130055;27;20422;-77
2022/06/20 03:55:05;;;;;;;2.58;1.27;;;19.80;94.60;;;;;;5104125;28;20027;-78
2022/06/20 03:57:55;;;;;;;3.05;1.23;;;19.80;95.00;;;;;;5114271;28;20024;-77
2022/06/20 04:00:35;;;;;;;2.05;1.17;;;19.80;94.70;;;;;;5123282;27;20024;-75
2022/06/20 04:03:23;;;;;;;3.25;1.50;;;19.80;95.00;;;;;;5115863;27;20019;-78
2022/06/20 04:05:55;;;;;;;3.28;1.30;;;19.90;95.20;;;;;;5135219;27;20118;-78
2022/06/20 04:11:48;;;;;;;1.33;1.00;;;19.90;95.10;;;;;;5105502;27;20035;-78
2022/06/20 04:14:22;;;;;;;2.63;1.30;;;19.90;94.60;;;;;;5094652;28;20023;-77
2022/06/20 04:18:27;;;;;;;2.00;1.13;;;19.90;94.40;;;;;;5099170;28;20038;-76
2022/06/20 04:19:51;;;;;;;2.13;1.10;;;19.90;94.30;;;;;;5109639;28;20019;-75
2022/06/20 04:22:21;;;;;;;2.67;1.20;;;19.80;94.20;;;;;;5112943;28;20020;-75
2022/06/20 04:25:19;;;;;;;2.88;1.42;;;19.80;94.50;;;;;;5109970;27;20123;-75
2022/06/20 04:27:53;;;;;;;3.30;1.40;;;19.80;94.60;;;;;;5100278;27;20030;-75
2022/06/20 04:30:41;;;;;;;2.35;1.20;;;19.80;94.70;;;;;;5103186;27;20055;-75
2022/06/20 04:33:23;;;;;;;2.92;1.35;;;19.80;94.10;;;;;;5109704;27;20031;-75
2022/06/20 04:36:11;;;;;;;2.20;1.30;;;19.80;94.10;;;;;;5094237;28;20055;-77
2022/06/20 04:39:05;;;;;;;2.95;1.20;;;19.80;94.20;;;;;;5098519;28;20395;-76
2022/06/20 04:41:52;;;;;;;2.17;1.30;;;19.80;94.30;;;;;;5096881;28;20023;-77
2022/06/20 04:44:22;;;;;;;2.92;1.40;;;19.80;94.40;;;;;;5082621;28;20027;-77
2022/06/20 04:47:04;;;;;;;1.60;1.10;;;19.80;94.60;;;;;;5097662;28;20023;-78
2022/06/20 04:49:31;;;;;;;2.60;1.40;;;19.80;94.90;;;;;;5108362;28;20023;-77
2022/06/20 04:51:56;;;;;;;2.33;1.10;;;19.80;94.70;;;;;;5095017;28;20032;-77
2022/06/20 04:54:22;;;;;;;2.30;1.10;;;19.80;95.10;;;;;;5124288;28;20095;-77
2022/06/20 04:56:51;;;;;;;2.42;1.20;;;19.90;95.00;;;;;;5106175;28;20448;-74
2022/06/20 04:59:28;;;;;;;1.55;1.15;;;19.90;95.10;;;;;;5100856;28;20028;-77
2022/06/20 05:01:57;;;;;;;2.15;1.30;;;19.90;95.00;;;;;;5112142;28;20016;-75
2022/06/20 05:04:31;;;;;;;2.58;1.20;;;19.90;95.10;;;;;;5115744;28;20035;-76
2022/06/20 05:07:01;;;;;;;2.25;1.15;;;19.90;94.70;;;;;;5113980;28;20027;-76
2022/06/20 05:09:32;;;;;;;2.85;1.20;;;19.90;94.50;;;;;;5123955;28;20031;-76
2022/06/20 05:12:01;;;;;;;2.13;1.20;;;19.90;94.30;;;;;;5131091;28;20027;-73
2022/06/20 05:24:48;;;;;;;2.35;1.20;;;19.80;94.00;;;;;;5022253;28;20052;-74
2022/06/20 05:28:12;;;;;;;3.17;1.20;;;19.80;94.00;;;;;;5065926;28;20029;-76
2022/06/20 05:31:46;;;;;;;;;;;;;;;;;;;;;
2022/06/20 05:38:37;;;;;;;3.50;1.40;;;19.80;94.50;;;;;;5059491;28;20115;-76
2022/06/20 05:49:19;;;;;;;1.50;1.10;;;19.80;95.10;;;;;;4961366;28;20030;-76
2022/06/20 05:52:32;;;;;;;;;;;;;;;;;;;;;
2022/06/20 06:29:48;;;;;;;3.15;1.27;;;19.90;94.30;;;;;;4979284;28;20029;-77
2022/06/20 06:36:33;;;;;;;;;;;;;;;;;;;;;
2022/06/20 06:52:12;;;;;;;3.97;1.20;;;20.00;94.00;;;;;;5088650;28;20058;-77
2022/06/20 06:54:59;;;;;;;4.60;1.27;;;20.00;93.80;;;;;;5039876;28;20020;-76
2022/06/20 06:57:50;;;;;;;3.03;1.10;;;20.10;93.90;;;;;;5049104;28;20033;-77
2022/06/20 07:00:25;;;;;;;3.28;1.10;;;20.00;94.00;;;;;;5068931;28;20090;-76
2022/06/20 07:03:01;;;;;;;2.72;1.30;;;20.00;93.90;;;;;;5054836;28;20052;-76
2022/06/20 07:05:37;;;;;;;2.28;1.10;;;20.00;93.80;;;;;;5054599;28;20098;-77
2022/06/20 07:08:05;;;;;;;2.47;1.00;;;20.00;93.90;;;;;;5071651;28;20029;-76
2022/06/20 07:10:40;;;;;;;2.67;1.20;;;20.00;93.60;;;;;;5072388;28;20029;-76
2022/06/20 07:13:21;;;;;;;3.80;1.15;;;20.00;93.80;;;;;;5072510;28;20060;-76
2022/06/20 07:15:51;;;;;;;2.33;1.08;;;20.00;94.00;;;;;;5073057;28;20033;-76
2022/06/20 07:18:48;;;;;;;4.20;1.25;;;20.00;93.70;;;;;;5072812;28;20049;-76
2022/06/20 07:21:21;;;;;;;2.33;1.10;;;20.10;94.00;;;;;;5054638;28;20017;-77
2022/06/20 07:23:50;;;;;;;2.67;1.15;;;20.10;94.00;;;;;;5071050;28;20021;-76
2022/06/20 07:26:18;;;;;;;3.88;1.13;;;20.10;94.00;;;;;;5072645;28;20031;-76
2022/06/20 07:28:53;;;;;;;3.85;1.23;;;20.10;94.10;;;;;;5071639;28;20583;-76
2022/06/20 07:31:28;;;;;;;2.63;1.20;;;20.10;94.10;;;;;;5054714;28;20366;-76
2022/06/20 07:33:59;;;;;;;1.95;0.90;;;20.10;94.50;;;;;;5054525;28;20029;-77
2022/06/20 07:36:31;;;;;;;;;;;20.10;94.40;;;;;;5071797;28;20031;-76
2022/06/20 07:39:20;;;;;;;2.67;1.20;;;20.10;94.30;;;;;;5071622;28;19910;-76
2022/06/20 07:41:53;;;;;;;2.95;1.30;;;20.10;94.10;;;;;;5072518;28;20112;-75
2022/06/20 07:44:29;;;;;;;4.03;1.38;;;20.10;93.90;;;;;;5071109;28;20432;-76
2022/06/20 07:47:00;;;;;;;2.67;1.20;;;20.10;94.00;;;;;;5071013;28;20025;-76
2022/06/20 07:49:35;;;;;;;2.78;1.10;;;20.10;94.10;;;;;;5072573;28;20039;-76
2022/06/20 07:52:20;;;;;;;1.92;1.00;;;20.10;93.90;;;;;;5070819;28;20477;-76
2022/06/20 07:54:51;;;;;;;2.83;1.20;;;20.00;93.90;;;;;;5054237;28;20029;-77
2022/06/20 07:57:23;;;;;;;2.07;1.20;;;20.10;93.90;;;;;;5071887;28;20074;-76
2022/06/20 08:00:09;;;;;;;2.95;1.08;;;20.10;94.00;;;;;;5070885;28;20016;-76
2022/06/20 08:02:57;;;;;;;2.90;1.20;;;20.10;94.00;;;;;;5070446;28;20352;-76
2022/06/20 08:05:44;;;;;;;2.92;1.10;;;20.10;94.00;;;;;;5071968;28;20062;-77
2022/06/20 08:08:22;;;;;;;1.95;0.98;;;20.10;94.00;;;;;;5071792;28;20038;-76
2022/06/20 08:11:41;;;;;;;1.70;1.10;;;20.10;94.10;;;;;;5070849;28;20116;-76
2022/06/20 08:14:17;;;;;;;1.90;1.05;;;20.10;94.00;;;;;;5070726;28;20063;-76
2022/06/20 08:16:45;;;;;;;2.92;1.10;;;20.10;94.20;;;;;;5070919;28;20409;-77
2022/06/20 08:19:11;;;;;;;2.85;1.23;;;20.10;94.20;;;;;;5070658;28;20116;-76
2022/06/20 08:21:42;;;;;;;2.90;1.10;;;20.10;94.30;;;;;;5053822;28;20115;-77
2022/06/20 08:24:15;;;;;;;2.00;1.10;;;20.10;94.50;;;;;;5053489;28;20481;-77
2022/06/20 08:26:52;;;;;;;2.08;1.10;;;20.10;94.40;;;;;;5070609;28;20576;-76
2022/06/20 08:29:31;;;;;;;2.55;0.93;;;20.20;94.40;;;;;;5070557;28;20027;-76
2022/06/20 08:32:06;;;;;;;2.53;1.20;;;20.20;94.00;;;;;;5069950;28;20017;-76
2022/06/20 08:34:49;;;;;;;2.33;1.10;;;20.20;93.80;;;;;;5071559;28;20032;-76
2022/06/20 08:37:22;;;;;;;2.97;1.10;;;20.30;93.80;;;;;;5071373;28;20485;-76
2022/06/20 08:40:30;;;;;;;2.42;1.23;;;20.30;93.60;;;;;;5071666;28;20020;-76
2022/06/20 08:43:28;;;;;;;2.60;1.17;;;20.30;93.60;;;;;;5053167;28;20069;-76
2022/06/20 08:46:21;;;;;;;3.45;1.23;;;20.20;93.80;;;;;;5053410;28;20040;-76
2022/06/20 08:48:55;;;;;;;4.20;1.48;;;20.20;93.60;;;;;;5071232;28;20035;-76
2022/06/20 08:51:42;;;;;;;2.95;1.30;;;20.20;94.00;;;;;;5053301;28;20496;-76
2022/06/20 08:54:43;;;;;;;2.90;1.35;;;20.20;94.00;;;;;;5069760;28;20035;-76
2022/06/20 08:57:20;;;;;;;3.38;1.20;;;20.20;94.00;;;;;;5031373;28;20489;-76
2022/06/20 08:59:58;;;;;;;2.38;1.10;;;20.20;93.80;;;;;;5069371;28;20021;-76
2022/06/20 09:02:33;;;;;;;2.58;1.10;;;20.30;93.70;;;;;;5070502;28;20025;-80
2022/06/20 09:05:18;;;;;;;3.05;1.30;;;20.30;93.70;;;;;;5070149;28;20059;-76
2022/06/20 09:08:19;;;;;;;1.98;1.00;;;20.30;93.60;;;;;;5052521;28;20560;-76
2022/06/20 09:11:30;;;;;;;2.80;1.33;;;20.30;93.70;;;;;;5071288;28;20028;-76
2022/06/20 09:14:31;;;;;;;1.45;0.93;;;20.30;93.90;;;;;;5070864;28;20067;-77
2022/06/20 09:17:05;;;;;;;2.92;1.50;;;20.30;93.90;;;;;;5017970;28;20041;-77
2022/06/20 09:19:52;;;;;;;1.67;1.00;;;20.40;93.80;;;;;;5070996;28;20025;-77
2022/06/20 09:22:50;;;;;;;2.58;1.30;;;20.40;93.80;;;;;;5052828;28;20021;-77
2022/06/20 09:25:44;;;;;;;2.88;1.30;;;20.40;93.50;;;;;;5071026;28;20029;-76
2022/06/20 09:28:32;;;;;;;2.97;1.30;;;20.40;93.40;;;;;;5069710;28;20040;-76
2022/06/20 09:31:06;;;;;;;2.60;1.20;;;20.50;93.30;;;;;;5071154;28;20142;-76
2022/06/20 09:33:51;;;;;;;1.50;1.05;;;20.50;93.30;;;;;;5070446;28;20025;-76
2022/06/20 09:36:16;;;;;;;1.58;1.10;;;20.50;93.30;;;;;;5070781;28;20035;-76
2022/06/20 09:39:00;;;;;;;3.38;1.20;;;20.40;93.10;;;;;;5071176;28;20025;-76
2022/06/20 09:41:44;;;;;;;3.50;1.20;;;20.50;93.20;;;;;;5070881;28;20021;-76
2022/06/20 09:44:16;;;;;;;1.85;1.10;;;20.40;93.10;;;;;;5052552;28;20127;-77
2022/06/20 09:47:13;;;;;;;1.60;1.00;;;20.50;93.20;;;;;;5052967;28;20481;-77
2022/06/20 09:49:59;;;;;;;2.72;1.25;;;20.50;93.20;;;;;;5052883;28;20378;-76
2022/06/20 09:52:43;;;;;;;2.58;1.33;;;20.50;93.20;;;;;;5070420;28;20020;-77
2022/06/20 09:55:57;;;;;;;2.13;1.10;;;20.40;93.40;;;;;;5052583;28;20035;-76
2022/06/20 09:58:44;;;;;;;2.28;1.13;;;20.50;93.40;;;;;;5048673;28;20037;-76
2022/06/20 10:01:31;;;;;;;1.63;1.10;;;20.50;93.40;;;;;;5070682;28;20550;-76
2022/06/20 10:04:04;;;;;;;2.17;1.30;;;20.50;93.40;;;;;;5056073;28;20024;-76
2022/06/20 10:06:48;;;;;;;2.75;1.20;;;20.50;93.40;;;;;;5056380;28;20031;-76
2022/06/20 10:09:27;;;;;;;1.85;1.10;;;20.50;93.30;;;;;;5056180;28;20484;-76
2022/06/20 10:12:02;;;;;;;2.95;1.30;;;20.50;93.60;;;;;;5056423;28;20123;-78
2022/06/20 10:14:44;;;;;;;2.33;1.20;;;20.50;93.50;;;;;;5074163;28;20025;-77
2022/06/20 10:17:21;;;;;;;1.73;1.20;;;20.50;93.30;;;;;;5073948;28;20027;-76
2022/06/20 10:20:28;;;;;;;2.20;1.13;;;20.60;93.20;;;;;;5072798;28;20063;-76
2022/06/20 10:23:16;;;;;;;2.22;1.17;;;20.60;93.10;;;;;;5001546;28;20025;-77
2022/06/20 10:26:10;;;;;;;2.28;1.30;;;20.60;93.00;;;;;;5056042;28;20438;-76
2022/06/20 10:28:54;;;;;;;2.38;1.20;;;20.60;93.30;;;;;;5073798;28;20028;-77
2022/06/20 10:31:41;;;;;;;2.40;1.10;;;20.50;93.00;;;;;;5073930;28;20818;-75
2022/06/20 10:34:10;;;;;;;2.70;1.15;;;20.50;93.20;;;;;;5071837;28;20028;-76
2022/06/20 10:36:47;;;;;;;3.08;1.30;;;20.50;93.30;;;;;;5055760;28;20029;-76
2022/06/20 10:39:34;;;;;;;1.55;1.10;;;20.50;93.40;;;;;;5055552;28;20513;-77
2022/06/20 10:42:32;;;;;;;1.77;1.10;;;20.50;93.40;;;;;;5072972;28;20470;-76
2022/06/20 10:45:43;;;;;;;1.10;1.00;;;20.50;93.70;;;;;;5073413;28;20033;-76
2022/06/20 10:48:14;;;;;;;1.77;1.10;;;20.50;93.60;;;;;;5034565;28;20033;-76
2022/06/20 10:50:48;;;;;;;;;;;20.40;93.90;;;;;;5073931;28;20537;-76
2022/06/20 10:53:36;;;;;;;2.00;1.30;;;20.40;93.90;;;;;;5073020;28;19915;-76
2022/06/20 10:56:22;;;;;;;2.90;1.38;;;20.40;93.90;;;;;;5073130;28;20439;-76
2022/06/20 10:59:11;;;;;;;2.03;1.15;;;20.40;94.20;;;;;;5072015;28;20017;-76
2022/06/20 11:01:57;;;;;;;2.97;1.20;;;20.50;93.90;;;;;;5055243;28;20067;-77
2022/06/20 11:05:01;;;;;;;2.58;1.20;;;20.40;94.20;;;;;;5055201;28;20029;-76
2022/06/20 11:07:40;;;;;;;1.70;0.98;;;20.50;94.10;;;;;;5073059;28;20025;-77
2022/06/20 11:10:26;;;;;;;2.38;1.30;;;20.50;94.10;;;;;;5055109;28;20060;-76
2022/06/20 11:13:21;;;;;;;2.30;1.10;;;20.50;93.60;;;;;;5071571;28;20024;-76
2022/06/20 11:16:11;;;;;;;2.33;1.30;;;20.50;93.50;;;;;;5072723;28;20031;-76
2022/06/20 11:18:58;;;;;;;2.35;1.25;;;20.50;93.60;;;;;;5072976;28;20025;-76
2022/06/20 11:21:54;;;;;;;1.60;1.10;;;20.60;93.20;;;;;;5072828;28;20035;-76
2022/06/20 11:24:44;;;;;;;1.90;1.13;;;20.50;93.50;;;;;;5054540;28;20025;-76
2022/06/20 11:27:21;;;;;;;;;;;20.50;93.50;;;;;;5073219;28;20036;-76
2022/06/20 11:30:07;;;;;;;2.60;1.30;;;20.50;93.50;;;;;;5054684;28;20054;-77
2022/06/20 11:32:49;;;;;;;2.55;1.17;;;20.40;93.90;;;;;;5054806;28;20485;-76
2022/06/20 11:35:46;;;;;;;2.70;1.10;;;20.50;93.60;;;;;;5054346;28;20032;-76
2022/06/20 11:38:54;;;;;;;1.85;1.30;;;20.50;93.60;;;;;;5041585;28;20549;-76
2022/06/20 11:41:35;;;;;;;1.80;1.20;;;20.50;93.80;;;;;;5072204;28;20107;-77
2022/06/20 11:44:29;;;;;;;2.33;1.20;;;20.50;93.70;;;;;;5071824;28;20517;-76
2022/06/20 11:47:07;;;;;;;1.58;1.10;;;20.50;93.70;;;;;;5072267;28;20028;-76
2022/06/20 11:49:56;;;;;;;2.13;1.23;;;20.50;93.70;;;;;;5054522;28;20123;-76
2022/06/20 11:52:54;;;;;;;2.13;1.20;;;20.50;93.50;;;;;;5054175;28;20024;-76
2022/06/20 11:55:41;;;;;;;2.42;1.08;;;20.50;93.70;;;;;;5020725;28;20044;-77
2022/06/20 11:58:21;;;;;;;1.42;1.00;;;20.60;93.40;;;;;;5072198;28;20061;-76
2022/06/20 12:00:55;;;;;;;2.38;1.40;;;20.60;93.50;;;;;;5054566;28;20035;-76
2022/06/20 12:03:36;;;;;;;2.03;1.20;;;20.60;93.40;;;;;;5071639;28;20230;-76
2022/06/20 12:06:27;;;;;;;2.17;1.25;;;20.60;93.30;;;;;;5053899;28;20530;-76
2022/06/20 12:08:56;;;;;;;1.65;1.10;;;20.60;93.30;;;;;;5070593;28;20029;-76
2022/06/20 12:11:27;;;;;;;2.03;1.30;;;20.60;93.40;;;;;;5054142;28;20393;-76
2022/06/20 12:14:06;;;;;;;;;;;20.50;93.50;;;;;;5071913;28;20122;-76
2022/06/20 12:16:55;;;;;;;1.73;1.20;;;20.50;94.00;;;;;;5072004;28;19964;-76
2022/06/20 12:25:37;;;;;;;2.50;1.20;;;20.40;94.00;;;;;;5071411;28;20063;-76
2022/06/20 12:28:18;;;;;;;1.97;1.30;;;20.40;94.10;;;;;;5053632;28;20025;-76
2022/06/20 12:30:54;;;;;;;3.08;1.30;;;20.40;94.10;;;;;;5053586;28;20288;-77
2022/06/20 12:33:20;;;;;;;1.92;1.20;;;20.40;94.40;;;;;;5071101;28;20485;-76
2022/06/20 12:35:51;;;;;;;1.65;1.20;;;20.40;94.10;;;;;;5071321;28;20043;-76
2022/06/20 12:38:27;;;;;;;3.15;1.10;;;20.40;94.10;;;;;;5070235;28;20435;-76
2022/06/20 12:41:03;;;;;;;2.10;1.17;;;20.40;94.30;;;;;;5071599;28;20528;-77
2022/06/20 12:43:54;;;;;;;2.65;1.20;;;20.40;94.20;;;;;;5053273;28;20078;-76
2022/06/20 12:46:25;;;;;;;2.50;1.30;;;20.40;94.60;;;;;;5053397;28;20437;-77
2022/06/20 12:48:51;;;;;;;;;;;20.40;94.50;;;;;;5070844;28;20033;-76
2022/06/20 12:51:52;;;;;;;2.10;1.30;;;20.40;94.20;;;;;;5071303;28;19905;-76
2022/06/20 12:54:48;;;;;;;2.70;1.30;;;20.40;94.10;;;;;;5053353;28;20029;-76
2022/06/20 12:57:39;;;;;;;1.90;1.20;;;20.50;94.00;;;;;;5053214;28;20025;-76
2022/06/20 13:00:16;;;;;;;2.00;1.17;;;20.50;93.80;;;;;;5053255;28;20025;-77
2022/06/20 13:03:00;;;;;;;2.42;1.25;;;20.40;93.90;;;;;;5053151;28;20508;-77
2022/06/20 13:05:44;;;;;;;2.33;1.33;;;20.40;94.10;;;;;;5069970;28;20028;-77
2022/06/20 13:08:27;;;;;;;2.33;1.23;;;20.40;94.00;;;;;;5071199;28;20025;-77
2022/06/20 13:11:23;;;;;;;2.58;1.42;;;20.40;93.80;;;;;;5071095;28;20513;-76
2022/06/20 13:14:08;;;;;;;3.67;1.40;;;20.40;94.20;;;;;;5052681;28;20064;-76
2022/06/20 13:17:02;;;;;;;2.13;1.20;;;20.40;93.90;;;;;;5053444;28;20039;-76
2022/06/20 13:19:33;;;;;;;3.28;1.45;;;20.40;94.20;;;;;;5053244;28;20028;-76
2022/06/20 13:22:28;;;;;;;2.08;1.25;;;20.40;94.10;;;;;;5052666;28;20021;-76
2022/06/20 13:25:18;;;;;;;1.60;1.30;;;20.30;94.40;;;;;;5070031;28;20506;-77
2022/06/20 13:27:48;;;;;;;;;;;20.40;94.30;;;;;;5053618;28;20029;-76
2022/06/20 13:30:19;;;;;;;2.47;1.27;;;20.40;94.30;;;;;;5053122;28;19905;-76
2022/06/20 13:32:55;;;;;;;2.50;1.67;;;20.30;94.50;;;;;;5070733;28;20039;-77
2022/06/20 13:35:35;;;;;;;2.65;1.48;;;20.30;94.50;;;;;;5070993;28;20055;-77
2022/06/20 13:38:12;;;;;;;1.77;1.30;;;20.30;94.60;;;;;;5072457;28;20020;-76
2022/06/20 13:40:49;;;;;;;1.67;1.10;;;20.40;94.50;;;;;;5074794;28;20108;-76
2022/06/20 13:43:58;;;;;;;2.55;1.25;;;20.40;94.40;;;;;;5073096;28;20404;-77
2022/06/20 13:46:35;;;;;;;2.20;1.40;;;20.40;94.30;;;;;;5073515;28;20032;-76
2022/06/20 13:49:16;;;;;;;1.95;1.35;;;20.50;94.30;;;;;;5056773;28;20115;-77
2022/06/20 13:51:41;;;;;;;;;;;20.40;93.90;;;;;;5057472;28;20056;-76
2022/06/20 13:54:30;;;;;;;1.88;1.30;;;20.40;94.20;;;;;;5074357;28;19955;-76
2022/06/20 13:57:04;;;;;;;2.45;1.40;;;20.40;93.90;;;;;;5056433;28;20056;-77
2022/06/20 13:59:52;;;;;;;2.45;1.40;;;20.40;94.20;;;;;;5056567;28;20028;-76
2022/06/20 14:02:39;;;;;;;2.00;1.30;;;20.40;94.20;;;;;;5074116;28;20038;-76
2022/06/20 14:05:22;;;;;;;1.60;1.13;;;20.40;93.80;;;;;;5056430;28;20029;-76
2022/06/20 14:07:51;;;;;;;2.90;1.52;;;20.30;94.00;;;;;;5074493;28;20107;-76
2022/06/20 14:10:29;;;;;;;2.08;1.40;;;20.40;94.30;;;;;;5074385;28;20037;-76
2022/06/20 14:13:00;;;;;;;2.40;1.38;;;20.30;94.50;;;;;;5073815;28;20066;-76
2022/06/20 14:15:37;;;;;;;2.22;1.50;;;20.30;94.20;;;;;;5074320;28;20567;-76
2022/06/20 14:18:25;;;;;;;2.63;1.40;;;20.30;94.70;;;;;;5073877;28;20025;-76
2022/06/20 14:21:07;;;;;;;2.60;1.50;;;20.30;94.70;;;;;;5056351;28;20059;-76
2022/06/20 14:23:35;;;;;;;2.63;1.42;;;20.30;94.70;;;;;;5055947;28;20489;-76
2022/06/20 14:26:04;;;;;;;3.22;1.50;;;20.30;94.50;;;;;;5073778;28;20439;-77
2022/06/20 14:28:36;;;;;;;2.97;1.60;;;20.40;95.00;;;;;;5055976;28;20056;-77
2022/06/20 14:31:16;;;;;;;2.42;1.25;;;20.30;94.90;;;;;;5072656;28;20025;-76
2022/06/20 14:33:42;;;;;;;2.22;1.42;;;20.40;94.70;;;;;;5055732;28;20024;-77
2022/06/20 14:36:22;;;;;;;1.92;1.30;;;20.40;94.70;;;;;;5055527;28;20043;-76
2022/06/20 14:39:00;;;;;;;2.55;1.40;;;20.40;94.40;;;;;;5055770;28;20115;-77
2022/06/20 14:41:39;;;;;;;1.90;1.33;;;20.40;94.50;;;;;;5055550;28;20024;-76
2022/06/20 14:44:35;;;;;;;2.33;1.30;;;20.40;94.10;;;;;;5054994;28;20554;-79
2022/06/20 14:47:31;;;;;;;1.92;1.45;;;20.40;94.30;;;;;;5028784;28;20926;-77
2022/06/20 14:50:29;;;;;;;1.83;1.30;;;20.40;94.30;;;;;;5064109;28;20047;-76
2022/06/20 14:53:05;;;;;;;2.00;1.38;;;20.30;94.50;;;;;;5050409;28;20120;-77
2022/06/20 14:55:45;;;;;;;2.65;1.38;;;20.40;94.00;;;;;;5065367;28;20025;-76
2022/06/20 14:58:40;;;;;;;3.53;1.40;;;20.30;94.10;;;;;;5047905;28;20036;-77
2022/06/20 15:01:31;;;;;;;2.42;1.40;;;20.30;94.40;;;;;;5070374;28;20425;-77
2022/06/20 15:04:06;;;;;;;2.28;1.50;;;20.30;94.50;;;;;;5045908;28;20393;-77
2022/06/20 15:06:40;;;;;;;2.25;1.35;;;20.30;94.50;;;;;;5052822;28;20030;-77
2022/06/20 15:09:24;;;;;;;2.30;1.30;;;20.30;94.60;;;;;;5053280;28;20037;-77
2022/06/20 15:12:29;;;;;;;1.98;1.40;;;20.30;94.80;;;;;;5038697;28;20486;-75
2022/06/20 15:15:01;;;;;;;2.60;1.40;;;20.30;95.00;;;;;;5042374;28;20053;-76
2022/06/20 15:17:31;;;;;;;3.55;1.40;;;20.20;94.70;;;;;;5040903;28;20032;-77
2022/06/20 15:20:11;;;;;;;2.97;1.50;;;20.30;95.00;;;;;;5045599;28;20540;-76
2022/06/20 15:22:45;;;;;;;2.92;1.52;;;20.30;95.00;;;;;;5052339;28;20021;-76
2022/06/20 15:25:26;;;;;;;1.92;1.27;;;20.30;93.10;;;;;;5040794;28;20569;-76